Harbor Emperor — WCY6430 — position and weather

sailwx.info

Track history (hours):
 
Tides and Currents Weather Stations Pressure Air Temp Water Temp Dewpoint Dewpoint Depression Visibility Wind Speed Wind Dir Waves Ship Positions

Harbor Emperor

Owner: BLUE & GOLD FLEET, SAN FRANCISCO, CA. More information available from US FCC via Universal Licensing System and Coast Guard Vessel Documentation Center.

Last reported at 2015-Mar-05 21:33 UTC. Time now 2015-Mar-05 22:33 UTC.
Position N 37°49' W 122°29'.

Length 31 m.

Type: Passenger vessel. MMSI: 366985270.

Date/timePositionNaut miles runAvg speedWind from/ knotsBaromVisibWave heightAir tempDewpointWater temp
2015-Mar-05 21:33N 37°49' W 122°29'4 3.7
2015-Mar-05 20:33N 37°49' W 122°24'1 0.6
2015-Mar-05 19:34N 37°49' W 122°25'3 2.5
2015-Mar-05 18:33N 37°49' W 122°28'3 2.4
2015-Mar-05 17:30N 37°49' W 122°25'0 0.0
2015-Mar-05 16:33N 37°49' W 122°25'0 0.0
2015-Mar-05 15:33N 37°49' W 122°25'0 0.0
2015-Mar-05 14:33N 37°49' W 122°25'0 0.0
2015-Mar-05 13:33N 37°49' W 122°25'0 0.0
2015-Mar-05 12:30N 37°49' W 122°25'0 0.0
2015-Mar-05 11:33N 37°49' W 122°25'0 0.0
2015-Mar-05 10:33N 37°49' W 122°25'0 0.0
2015-Mar-05 09:30N 37°49' W 122°25'0 0.0
2015-Mar-05 08:30N 37°49' W 122°25'0 0.0
2015-Mar-05 07:30N 37°49' W 122°25'0 0.0
2015-Mar-05 06:24N 37°49' W 122°25'0 0.0
2015-Mar-05 05:27N 37°49' W 122°25'0 0.0
2015-Mar-05 04:30N 37°49' W 122°25'0 0.0
2015-Mar-05 03:33N 37°49' W 122°25'0 0.0
2015-Mar-05 02:30N 37°49' W 122°25'0 0.0
2015-Mar-05 01:33N 37°49' W 122°25'0 0.1
2015-Mar-05 00:34N 37°49' W 122°25'3 3.1
2015-Mar-04 23:33N 37°49' W 122°29'3 3.2
2015-Mar-04 22:33N 37°49' W 122°25'3 3.2
2015-Mar-04 21:33N 37°49' W 122°29'4 3.7
2015-Mar-04 20:33N 37°49' W 122°24'1 0.6
2015-Mar-04 19:34N 37°49' W 122°25'2 2.1
2015-Mar-04 18:33N 37°49' W 122°27'2 2.2
2015-Mar-04 17:33N 37°49' W 122°25'0 0.0
2015-Mar-04 16:33N 37°49' W 122°25'0 0.0
2015-Mar-04 15:33N 37°49' W 122°25'0 0.0
2015-Mar-04 14:33N 37°49' W 122°25'0 0.0
2015-Mar-04 13:33N 37°49' W 122°25'0 0.0
2015-Mar-04 12:33N 37°49' W 122°25'0 0.0
2015-Mar-04 11:33N 37°49' W 122°25'0 0.0
2015-Mar-04 10:33N 37°49' W 122°25'0 0.0
2015-Mar-04 09:33N 37°49' W 122°25'0 0.0
2015-Mar-04 08:33N 37°49' W 122°25'0 0.0
2015-Mar-04 07:33N 37°49' W 122°25'0 0.0
2015-Mar-04 06:33N 37°49' W 122°25'0 0.0
2015-Mar-04 05:33N 37°49' W 122°25'0 0.0
2015-Mar-04 04:33N 37°49' W 122°25'0 0.0
2015-Mar-04 03:33N 37°49' W 122°25'0 0.0
2015-Mar-04 02:33N 37°49' W 122°25'0 0.0
2015-Mar-04 01:33N 37°49' W 122°25'0 0.1
2015-Mar-04 00:34N 37°49' W 122°25'3 2.7
2015-Mar-03 23:33N 37°49' W 122°28'3 2.7
2015-Mar-03 22:31N 37°49' W 122°25'3 3.3
2015-Mar-03 21:33N 37°49' W 122°29'3 2.8
2015-Mar-03 20:34N 37°50' W 122°25'1 1.2
2015-Mar-03 19:33N 37°49' W 122°25'2 1.4
2015-Mar-03 18:28N 37°49' W 122°27'2 0.1
2015-Mar-03 01:22N 37°49' W 122°25'0 0.0
2015-Mar-03 00:33N 37°49' W 122°25'1 1.3
2015-Mar-02 23:27N 37°49' W 122°27'2 1.2
2015-Mar-02 22:05N 37°49' W 122°25'2 3.9
2015-Mar-02 21:29N 37°49' W 122°27'2 2.2
2015-Mar-02 20:33N 37°50' W 122°25'1 1.2
2015-Mar-02 19:33N 37°49' W 122°25'3 2.6
2015-Mar-02 18:33N 37°49' W 122°28'3 2.1
2015-Mar-02 17:18N 37°49' W 122°25'0 0.0
2015-Mar-02 16:06N 37°49' W 122°25'0 0.0
2015-Mar-02 15:30N 37°49' W 122°25'0 0.0
2015-Mar-02 14:12N 37°49' W 122°25'0 0.0
2015-Mar-02 12:24N 37°49' W 122°25'0 0.0
2015-Mar-02 11:12N 37°49' W 122°25'0 0.0
2015-Mar-02 10:12N 37°49' W 122°25'0 0.0
2015-Mar-02 08:18N 37°49' W 122°25'0 0.0
2015-Mar-02 07:21N 37°49' W 122°25'0 0.0
2015-Mar-02 04:18N 37°49' W 122°25'0 0.0
2015-Mar-02 03:30N 37°49' W 122°25'0 0.0
2015-Mar-02 02:21N 37°49' W 122°25'0 0.0
2015-Mar-02 01:22N 37°49' W 122°25'0 0.3
2015-Mar-02 00:33N 37°49' W 122°25'2 1.7
2015-Mar-01 23:29N 37°49' W 122°27'2 2.2
2015-Mar-01 22:34N 37°49' W 122°25'3 3.3
2015-Mar-01 21:33N 37°49' W 122°29'3 3.2
2015-Mar-01 20:33N 37°49' W 122°25'1 0.8
2015-Mar-01 19:34N 37°49' W 122°25'3 3.4
2015-Mar-01 18:33N 37°49' W 122°29'3 0.2
2015-Mar-01 01:33N 37°49' W 122°25'0 0.1
2015-Mar-01 00:33N 37°49' W 122°25'2 2.5
2015-Feb-28 23:33N 37°49' W 122°28'3 2.5
2015-Feb-28 22:33N 37°49' W 122°25'3 2.7
2015-Feb-28 21:32N 37°49' W 122°28'2 2.2
2015-Feb-28 20:33N 37°50' W 122°26'1 1.3
2015-Feb-28 19:33N 37°49' W 122°25'3 2.5
2015-Feb-28 18:31N 37°49' W 122°28'3 2.0
2015-Feb-28 17:13N 37°49' W 122°25'0 0.0
2015-Feb-28 14:28N 37°49' W 122°25'0 0.0
2015-Feb-28 13:19N 37°49' W 122°25'0 0.0
2015-Feb-28 12:19N 37°49' W 122°25'0 0.0
2015-Feb-28 11:31N 37°49' W 122°25'0 0.0
2015-Feb-28 10:31N 37°49' W 122°25'0 0.0
2015-Feb-28 09:31N 37°49' W 122°25'0 0.0
2015-Feb-28 08:31N 37°49' W 122°25'0 0.0
2015-Feb-28 07:31N 37°49' W 122°25'0 0.0
2015-Feb-28 06:31N 37°49' W 122°25'0 0.0
2015-Feb-28 05:28N 37°49' W 122°25'0 0.0
2015-Feb-28 04:31N 37°49' W 122°25'0 0.0
2015-Feb-28 03:28N 37°49' W 122°25'0 0.0
2015-Feb-28 02:31N 37°49' W 122°25'0 0.0
2015-Feb-28 01:31N 37°49' W 122°25'0 0.2
2015-Feb-28 00:33N 37°49' W 122°25'3 3.4
2015-Feb-27 23:33N 37°51' W 122°28'4 3.5
2015-Feb-27 22:33N 37°49' W 122°25'3 2.9
2015-Feb-27 21:33N 37°49' W 122°28'4 3.8
2015-Feb-27 20:33N 37°49' W 122°24'1 0.9
2015-Feb-27 19:34N 37°49' W 122°25'3 3.2
2015-Feb-27 18:34N 37°49' W 122°29'4 4.3
2015-Feb-27 17:34N 37°48' W 122°24'5 5.4
2015-Feb-27 16:33N 37°52' W 122°27'5 4.7
2015-Feb-27 15:33N 37°49' W 122°24'4 4.4
2015-Feb-27 14:33N 37°52' W 122°27'3 0.3
2015-Feb-27 04:34N 37°49' W 122°25'2 1.6
2015-Feb-27 03:34N 37°48' W 122°24'5 4.8
2015-Feb-27 02:34N 37°52' W 122°27'3 3.2
2015-Feb-27 01:34N 37°49' W 122°24'1 1.5
2015-Feb-27 00:34N 37°48' W 122°24'1 1.1
2015-Feb-26 23:34N 37°49' W 122°25'4 4.4
2015-Feb-26 22:34N 37°52' W 122°27'3 3.4
2015-Feb-26 21:34N 37°49' W 122°25'1 0.6
2015-Feb-26 20:34N 37°50' W 122°26'2 1.6
2015-Feb-26 19:34N 37°49' W 122°25'4 4.4
2015-Feb-26 18:34N 37°52' W 122°27'5 4.6
2015-Feb-26 17:33N 37°49' W 122°24'5 4.6
2015-Feb-26 16:33N 37°52' W 122°27'4 3.7
2015-Feb-26 15:33N 37°49' W 122°25'4 3.7
2015-Feb-26 14:33N 37°52' W 122°27'4 4.4
2015-Feb-26 13:33N 37°49' W 122°25'0 0.0
2015-Feb-26 12:33N 37°49' W 122°25'0 0.0
2015-Feb-26 11:30N 37°49' W 122°25'0 0.0
2015-Feb-26 10:24N 37°49' W 122°25'0 0.0
2015-Feb-26 09:30N 37°49' W 122°25'0 0.0
2015-Feb-26 08:30N 37°49' W 122°25'0 0.0
2015-Feb-26 07:30N 37°49' W 122°25'0 0.0
2015-Feb-26 06:30N 37°49' W 122°25'0 0.0
2015-Feb-26 05:33N 37°49' W 122°25'0 0.0
2015-Feb-26 04:30N 37°49' W 122°25'0 0.0
2015-Feb-26 03:33N 37°49' W 122°25'0 0.0
2015-Feb-26 02:33N 37°49' W 122°25'0 0.0
2015-Feb-26 01:33N 37°49' W 122°25'0 0.0
2015-Feb-26 00:33N 37°49' W 122°25'0 0.0
2015-Feb-25 23:34N 37°49' W 122°25'0 0.0
2015-Feb-25 22:34N 37°49' W 122°25'0 0.0
2015-Feb-25 21:34N 37°49' W 122°25'0 0.0
2015-Feb-25 20:33N 37°49' W 122°25'0 0.0
2015-Feb-25 19:33N 37°49' W 122°25'0 0.1
2015-Feb-25 18:34N 37°49' W 122°25'0 0.1
2015-Feb-25 17:34N 37°49' W 122°25'0 0.0
2015-Feb-25 16:33N 37°49' W 122°25'0 0.0
2015-Feb-25 15:33N 37°49' W 122°25'0 0.0
2015-Feb-25 14:33N 37°49' W 122°25'0 0.0
2015-Feb-25 13:33N 37°49' W 122°25'0 0.0
2015-Feb-25 12:33N 37°49' W 122°25'0 0.0
2015-Feb-25 11:34N 37°49' W 122°25'0 0.0
2015-Feb-25 10:33N 37°49' W 122°25'0 0.0
2015-Feb-25 09:33N 37°49' W 122°25'0 0.0
2015-Feb-25 08:34N 37°49' W 122°25'0 0.0
2015-Feb-25 07:33N 37°49' W 122°25'0 0.0
2015-Feb-25 06:33N 37°49' W 122°25'0 0.0
2015-Feb-25 05:33N 37°49' W 122°25'0 0.0
2015-Feb-25 04:34N 37°49' W 122°25'0 0.0
2015-Feb-25 03:33N 37°49' W 122°25'0 0.0
2015-Feb-25 02:34N 37°49' W 122°25'0 0.0
2015-Feb-25 01:34N 37°49' W 122°25'0 0.1
2015-Feb-25 00:33N 37°49' W 122°25'2 2.4
2015-Feb-24 23:33N 37°49' W 122°28'2 2.4
2015-Feb-24 22:33N 37°49' W 122°25'3 2.5
2015-Feb-24 21:34N 37°49' W 122°28'2 2.3
2015-Feb-24 20:33N 37°50' W 122°25'1 1.1
2015-Feb-24 19:33N 37°49' W 122°25'3 3.0
2015-Feb-24 18:34N 37°49' W 122°28'2 2.3
2015-Feb-24 17:34N 37°51' W 122°27'4 3.8
2015-Feb-24 16:33N 37°48' W 122°24'3 2.9
2015-Feb-24 15:33N 37°50' W 122°26'2 0.1
2015-Feb-24 01:22N 37°49' W 122°25'0 0.2
2015-Feb-24 00:33N 37°49' W 122°25'3 2.5
2015-Feb-23 23:33N 37°49' W 122°28'3 2.5
2015-Feb-23 22:33N 37°49' W 122°25'  
Track history (hours):
 
Tides and Currents Weather Stations Pressure Air Temp Water Temp Dewpoint Dewpoint Depression Visibility Wind Speed Wind Dir Waves Ship Positions

Harbor Emperor

Owner: BLUE & GOLD FLEET, SAN FRANCISCO, CA. More information available from US FCC via Universal Licensing System and Coast Guard Vessel Documentation Center.

Last reported at 2015-Mar-05 21:33 UTC. Time now 2015-Mar-05 22:33 UTC.
Position N 37°49' W 122°29'.

Length 31 m.

Type: Passenger vessel. MMSI: 366985270.

Date/timePositionNaut miles runAvg speedWind from/ knotsBaromVisibWave heightAir tempDewpointWater temp
2015-Mar-05 21:33N 37°49' W 122°29'4 3.7
2015-Mar-05 20:33N 37°49' W 122°24'1 0.6
2015-Mar-05 19:34N 37°49' W 122°25'3 2.5
2015-Mar-05 18:33N 37°49' W 122°28'3 2.4
2015-Mar-05 17:30N 37°49' W 122°25'0 0.0
2015-Mar-05 16:33N 37°49' W 122°25'0 0.0
2015-Mar-05 15:33N 37°49' W 122°25'0 0.0
2015-Mar-05 14:33N 37°49' W 122°25'0 0.0
2015-Mar-05 13:33N 37°49' W 122°25'0 0.0
2015-Mar-05 12:30N 37°49' W 122°25'0 0.0
2015-Mar-05 11:33N 37°49' W 122°25'0 0.0
2015-Mar-05 10:33N 37°49' W 122°25'0 0.0
2015-Mar-05 09:30N 37°49' W 122°25'0 0.0
2015-Mar-05 08:30N 37°49' W 122°25'0 0.0
2015-Mar-05 07:30N 37°49' W 122°25'0 0.0
2015-Mar-05 06:24N 37°49' W 122°25'0 0.0
2015-Mar-05 05:27N 37°49' W 122°25'0 0.0
2015-Mar-05 04:30N 37°49' W 122°25'0 0.0
2015-Mar-05 03:33N 37°49' W 122°25'0 0.0
2015-Mar-05 02:30N 37°49' W 122°25'0 0.0
2015-Mar-05 01:33N 37°49' W 122°25'0 0.1
2015-Mar-05 00:34N 37°49' W 122°25'3 3.1
2015-Mar-04 23:33N 37°49' W 122°29'3 3.2
2015-Mar-04 22:33N 37°49' W 122°25'3 3.2
2015-Mar-04 21:33N 37°49' W 122°29'4 3.7
2015-Mar-04 20:33N 37°49' W 122°24'1 0.6
2015-Mar-04 19:34N 37°49' W 122°25'2 2.1
2015-Mar-04 18:33N 37°49' W 122°27'2 2.2
2015-Mar-04 17:33N 37°49' W 122°25'0 0.0
2015-Mar-04 16:33N 37°49' W 122°25'0 0.0
2015-Mar-04 15:33N 37°49' W 122°25'0 0.0
2015-Mar-04 14:33N 37°49' W 122°25'0 0.0
2015-Mar-04 13:33N 37°49' W 122°25'0 0.0
2015-Mar-04 12:33N 37°49' W 122°25'0 0.0
2015-Mar-04 11:33N 37°49' W 122°25'0 0.0
2015-Mar-04 10:33N 37°49' W 122°25'0 0.0
2015-Mar-04 09:33N 37°49' W 122°25'0 0.0
2015-Mar-04 08:33N 37°49' W 122°25'0 0.0
2015-Mar-04 07:33N 37°49' W 122°25'0 0.0
2015-Mar-04 06:33N 37°49' W 122°25'0 0.0
2015-Mar-04 05:33N 37°49' W 122°25'0 0.0
2015-Mar-04 04:33N 37°49' W 122°25'0 0.0
2015-Mar-04 03:33N 37°49' W 122°25'0 0.0
2015-Mar-04 02:33N 37°49' W 122°25'0 0.0
2015-Mar-04 01:33N 37°49' W 122°25'0 0.1
2015-Mar-04 00:34N 37°49' W 122°25'3 2.7
2015-Mar-03 23:33N 37°49' W 122°28'3 2.7
2015-Mar-03 22:31N 37°49' W 122°25'3 3.3
2015-Mar-03 21:33N 37°49' W 122°29'3 2.8
2015-Mar-03 20:34N 37°50' W 122°25'1 1.2
2015-Mar-03 19:33N 37°49' W 122°25'2 1.4
2015-Mar-03 18:28N 37°49' W 122°27'2 0.1
2015-Mar-03 01:22N 37°49' W 122°25'0 0.0
2015-Mar-03 00:33N 37°49' W 122°25'1 1.3
2015-Mar-02 23:27N 37°49' W 122°27'2 1.2
2015-Mar-02 22:05N 37°49' W 122°25'2 3.9
2015-Mar-02 21:29N 37°49' W 122°27'2 2.2
2015-Mar-02 20:33N 37°50' W 122°25'1 1.2
2015-Mar-02 19:33N 37°49' W 122°25'3 2.6
2015-Mar-02 18:33N 37°49' W 122°28'3 2.1
2015-Mar-02 17:18N 37°49' W 122°25'0 0.0
2015-Mar-02 16:06N 37°49' W 122°25'0 0.0
2015-Mar-02 15:30N 37°49' W 122°25'0 0.0
2015-Mar-02 14:12N 37°49' W 122°25'0 0.0
2015-Mar-02 12:24N 37°49' W 122°25'0 0.0
2015-Mar-02 11:12N 37°49' W 122°25'0 0.0
2015-Mar-02 10:12N 37°49' W 122°25'0 0.0
2015-Mar-02 08:18N 37°49' W 122°25'0 0.0
2015-Mar-02 07:21N 37°49' W 122°25'0 0.0
2015-Mar-02 04:18N 37°49' W 122°25'0 0.0
2015-Mar-02 03:30N 37°49' W 122°25'0 0.0
2015-Mar-02 02:21N 37°49' W 122°25'0 0.0
2015-Mar-02 01:22N 37°49' W 122°25'0 0.3
2015-Mar-02 00:33N 37°49' W 122°25'2 1.7
2015-Mar-01 23:29N 37°49' W 122°27'2 2.2
2015-Mar-01 22:34N 37°49' W 122°25'3 3.3
2015-Mar-01 21:33N 37°49' W 122°29'3 3.2
2015-Mar-01 20:33N 37°49' W 122°25'1 0.8
2015-Mar-01 19:34N 37°49' W 122°25'3 3.4
2015-Mar-01 18:33N 37°49' W 122°29'3 0.2
2015-Mar-01 01:33N 37°49' W 122°25'0 0.1
2015-Mar-01 00:33N 37°49' W 122°25'2 2.5
2015-Feb-28 23:33N 37°49' W 122°28'3 2.5
2015-Feb-28 22:33N 37°49' W 122°25'3 2.7
2015-Feb-28 21:32N 37°49' W 122°28'2 2.2
2015-Feb-28 20:33N 37°50' W 122°26'1 1.3
2015-Feb-28 19:33N 37°49' W 122°25'3 2.5
2015-Feb-28 18:31N 37°49' W 122°28'3 2.0
2015-Feb-28 17:13N 37°49' W 122°25'0 0.0
2015-Feb-28 14:28N 37°49' W 122°25'0 0.0
2015-Feb-28 13:19N 37°49' W 122°25'0 0.0
2015-Feb-28 12:19N 37°49' W 122°25'0 0.0
2015-Feb-28 11:31N 37°49' W 122°25'0 0.0
2015-Feb-28 10:31N 37°49' W 122°25'0 0.0
2015-Feb-28 09:31N 37°49' W 122°25'0 0.0
2015-Feb-28 08:31N 37°49' W 122°25'0 0.0
2015-Feb-28 07:31N 37°49' W 122°25'0 0.0
2015-Feb-28 06:31N 37°49' W 122°25'0 0.0
2015-Feb-28 05:28N 37°49' W 122°25'0 0.0
2015-Feb-28 04:31N 37°49' W 122°25'0 0.0
2015-Feb-28 03:28N 37°49' W 122°25'0 0.0
2015-Feb-28 02:31N 37°49' W 122°25'0 0.0
2015-Feb-28 01:31N 37°49' W 122°25'0 0.2
2015-Feb-28 00:33N 37°49' W 122°25'3 3.4
2015-Feb-27 23:33N 37°51' W 122°28'4 3.5
2015-Feb-27 22:33N 37°49' W 122°25'3 2.9
2015-Feb-27 21:33N 37°49' W 122°28'4 3.8
2015-Feb-27 20:33N 37°49' W 122°24'1 0.9
2015-Feb-27 19:34N 37°49' W 122°25'3 3.2
2015-Feb-27 18:34N 37°49' W 122°29'4 4.3
2015-Feb-27 17:34N 37°48' W 122°24'5 5.4
2015-Feb-27 16:33N 37°52' W 122°27'5 4.7
2015-Feb-27 15:33N 37°49' W 122°24'4 4.4
2015-Feb-27 14:33N 37°52' W 122°27'3 0.3
2015-Feb-27 04:34N 37°49' W 122°25'2 1.6
2015-Feb-27 03:34N 37°48' W 122°24'5 4.8
2015-Feb-27 02:34N 37°52' W 122°27'3 3.2
2015-Feb-27 01:34N 37°49' W 122°24'1 1.5
2015-Feb-27 00:34N 37°48' W 122°24'1 1.1
2015-Feb-26 23:34N 37°49' W 122°25'4 4.4
2015-Feb-26 22:34N 37°52' W 122°27'3 3.4
2015-Feb-26 21:34N 37°49' W 122°25'1 0.6
2015-Feb-26 20:34N 37°50' W 122°26'2 1.6
2015-Feb-26 19:34N 37°49' W 122°25'4 4.4
2015-Feb-26 18:34N 37°52' W 122°27'5 4.6
2015-Feb-26 17:33N 37°49' W 122°24'5 4.6
2015-Feb-26 16:33N 37°52' W 122°27'4 3.7
2015-Feb-26 15:33N 37°49' W 122°25'4 3.7
2015-Feb-26 14:33N 37°52' W 122°27'4 4.4
2015-Feb-26 13:33N 37°49' W 122°25'0 0.0
2015-Feb-26 12:33N 37°49' W 122°25'0 0.0
2015-Feb-26 11:30N 37°49' W 122°25'0 0.0
2015-Feb-26 10:24N 37°49' W 122°25'0 0.0
2015-Feb-26 09:30N 37°49' W 122°25'0 0.0
2015-Feb-26 08:30N 37°49' W 122°25'0 0.0
2015-Feb-26 07:30N 37°49' W 122°25'0 0.0
2015-Feb-26 06:30N 37°49' W 122°25'0 0.0
2015-Feb-26 05:33N 37°49' W 122°25'0 0.0
2015-Feb-26 04:30N 37°49' W 122°25'0 0.0
2015-Feb-26 03:33N 37°49' W 122°25'0 0.0
2015-Feb-26 02:33N 37°49' W 122°25'0 0.0
2015-Feb-26 01:33N 37°49' W 122°25'0 0.0
2015-Feb-26 00:33N 37°49' W 122°25'0 0.0
2015-Feb-25 23:34N 37°49' W 122°25'0 0.0
2015-Feb-25 22:34N 37°49' W 122°25'0 0.0
2015-Feb-25 21:34N 37°49' W 122°25'0 0.0
2015-Feb-25 20:33N 37°49' W 122°25'0 0.0
2015-Feb-25 19:33N 37°49' W 122°25'0 0.1
2015-Feb-25 18:34N 37°49' W 122°25'0 0.1
2015-Feb-25 17:34N 37°49' W 122°25'0 0.0
2015-Feb-25 16:33N 37°49' W 122°25'0 0.0
2015-Feb-25 15:33N 37°49' W 122°25'0 0.0
2015-Feb-25 14:33N 37°49' W 122°25'0 0.0
2015-Feb-25 13:33N 37°49' W 122°25'0 0.0
2015-Feb-25 12:33N 37°49' W 122°25'0 0.0
2015-Feb-25 11:34N 37°49' W 122°25'0 0.0
2015-Feb-25 10:33N 37°49' W 122°25'0 0.0
2015-Feb-25 09:33N 37°49' W 122°25'0 0.0
2015-Feb-25 08:34N 37°49' W 122°25'0 0.0
2015-Feb-25 07:33N 37°49' W 122°25'0 0.0
2015-Feb-25 06:33N 37°49' W 122°25'0 0.0
2015-Feb-25 05:33N 37°49' W 122°25'0 0.0
2015-Feb-25 04:34N 37°49' W 122°25'0 0.0
2015-Feb-25 03:33N 37°49' W 122°25'0 0.0
2015-Feb-25 02:34N 37°49' W 122°25'0 0.0
2015-Feb-25 01:34N 37°49' W 122°25'0 0.1
2015-Feb-25 00:33N 37°49' W 122°25'2 2.4
2015-Feb-24 23:33N 37°49' W 122°28'2 2.4
2015-Feb-24 22:33N 37°49' W 122°25'3 2.5
2015-Feb-24 21:34N 37°49' W 122°28'2 2.3
2015-Feb-24 20:33N 37°50' W 122°25'1 1.1
2015-Feb-24 19:33N 37°49' W 122°25'3 3.0
2015-Feb-24 18:34N 37°49' W 122°28'2 2.3
2015-Feb-24 17:34N 37°51' W 122°27'4 3.8
2015-Feb-24 16:33N 37°48' W 122°24'3 2.9
2015-Feb-24 15:33N 37°50' W 122°26'2 0.1
2015-Feb-24 01:22N 37°49' W 122°25'0 0.2
2015-Feb-24 00:33N 37°49' W 122°25'3 2.5
2015-Feb-23 23:33N 37°49' W 122°28'3 2.5
2015-Feb-23 22:33N 37°49' W 122°25'  

Dump ship's entire track history